sensor_id;sensor_type;location;lat;lon;timestamp;P1;durP1;ratioP1;P2;durP2;ratioP2
19291;SDS011;9779;51.756;7.450;2024-03-08T00:01:48;19.67;;;15.17;;
19291;SDS011;9779;51.756;7.450;2024-03-08T00:04:13;18.17;;;15.43;;
19291;SDS011;9779;51.756;7.450;2024-03-08T00:06:40;18.87;;;16.33;;
19291;SDS011;9779;51.756;7.450;2024-03-08T00:09:06;26.00;;;16.00;;
19291;SDS011;9779;51.756;7.450;2024-03-08T00:11:33;16.40;;;14.80;;
19291;SDS011;9779;51.756;7.450;2024-03-08T00:13:59;16.37;;;14.80;;
19291;SDS011;9779;51.756;7.450;2024-03-08T00:16:25;16.20;;;14.57;;
19291;SDS011;9779;51.756;7.450;2024-03-08T00:18:51;17.93;;;15.90;;
19291;SDS011;9779;51.756;7.450;2024-03-08T00:21:16;21.87;;;15.07;;
19291;SDS011;9779;51.756;7.450;2024-03-08T00:23:42;18.47;;;15.23;;
19291;SDS011;9779;51.756;7.450;2024-03-08T00:26:08;19.73;;;14.27;;
19291;SDS011;9779;51.756;7.450;2024-03-08T00:28:34;18.03;;;16.13;;
19291;SDS011;9779;51.756;7.450;2024-03-08T00:31:00;21.93;;;15.83;;
19291;SDS011;9779;51.756;7.450;2024-03-08T00:33:25;24.60;;;15.37;;
19291;SDS011;9779;51.756;7.450;2024-03-08T00:35:52;17.67;;;15.50;;
19291;SDS011;9779;51.756;7.450;2024-03-08T00:38:21;18.20;;;15.10;;
19291;SDS011;9779;51.756;7.450;2024-03-08T00:40:46;20.23;;;15.83;;
19291;SDS011;9779;51.756;7.450;2024-03-08T00:43:12;19.07;;;16.20;;
19291;SDS011;9779;51.756;7.450;2024-03-08T00:45:38;21.70;;;16.27;;
19291;SDS011;9779;51.756;7.450;2024-03-08T00:48:04;17.13;;;14.93;;
19291;SDS011;9779;51.756;7.450;2024-03-08T00:50:30;20.43;;;15.47;;
19291;SDS011;9779;51.756;7.450;2024-03-08T00:52:56;21.13;;;14.77;;
19291;SDS011;9779;51.756;7.450;2024-03-08T00:55:22;21.63;;;16.47;;
19291;SDS011;9779;51.756;7.450;2024-03-08T00:57:47;19.43;;;15.30;;
19291;SDS011;9779;51.756;7.450;2024-03-08T01:00:13;17.90;;;15.93;;
19291;SDS011;9779;51.756;7.450;2024-03-08T01:02:39;18.13;;;16.07;;
19291;SDS011;9779;51.756;7.450;2024-03-08T01:05:05;18.93;;;15.67;;
19291;SDS011;9779;51.756;7.450;2024-03-08T01:07:34;23.63;;;15.03;;
19291;SDS011;9779;51.756;7.450;2024-03-08T01:10:00;19.03;;;15.87;;
19291;SDS011;9779;51.756;7.450;2024-03-08T01:12:28;25.07;;;15.77;;
19291;SDS011;9779;51.756;7.450;2024-03-08T01:14:54;18.77;;;15.67;;
19291;SDS011;9779;51.756;7.450;2024-03-08T01:17:20;21.73;;;15.33;;
19291;SDS011;9779;51.756;7.450;2024-03-08T01:19:45;19.33;;;16.23;;
19291;SDS011;9779;51.756;7.450;2024-03-08T01:22:11;18.30;;;14.97;;
19291;SDS011;9779;51.756;7.450;2024-03-08T01:24:37;20.43;;;15.67;;
19291;SDS011;9779;51.756;7.450;2024-03-08T01:27:02;19.63;;;14.73;;
19291;SDS011;9779;51.756;7.450;2024-03-08T01:29:28;20.47;;;16.37;;
19291;SDS011;9779;51.756;7.450;2024-03-08T01:31:57;23.90;;;15.90;;
19291;SDS011;9779;51.756;7.450;2024-03-08T01:34:25;17.67;;;15.67;;
19291;SDS011;9779;51.756;7.450;2024-03-08T01:36:53;18.23;;;15.40;;
19291;SDS011;9779;51.756;7.450;2024-03-08T01:39:20;20.20;;;15.83;;
19291;SDS011;9779;51.756;7.450;2024-03-08T01:41:47;23.47;;;17.00;;
19291;SDS011;9779;51.756;7.450;2024-03-08T01:44:12;16.43;;;14.73;;
19291;SDS011;9779;51.756;7.450;2024-03-08T01:46:43;19.17;;;16.70;;
19291;SDS011;9779;51.756;7.450;2024-03-08T01:49:12;18.57;;;16.20;;
19291;SDS011;9779;51.756;7.450;2024-03-08T01:51:38;27.33;;;15.73;;
19291;SDS011;9779;51.756;7.450;2024-03-08T01:54:06;19.77;;;16.03;;
19291;SDS011;9779;51.756;7.450;2024-03-08T01:56:35;22.77;;;16.23;;
19291;SDS011;9779;51.756;7.450;2024-03-08T01:59:02;20.07;;;16.13;;
19291;SDS011;9779;51.756;7.450;2024-03-08T02:01:28;18.53;;;16.17;;
19291;SDS011;9779;51.756;7.450;2024-03-08T02:03:54;23.57;;;16.90;;
19291;SDS011;9779;51.756;7.450;2024-03-08T02:06:20;21.30;;;16.00;;
19291;SDS011;9779;51.756;7.450;2024-03-08T02:08:45;21.23;;;15.80;;
19291;SDS011;9779;51.756;7.450;2024-03-08T02:11:12;21.77;;;16.33;;
19291;SDS011;9779;51.756;7.450;2024-03-08T02:13:38;17.40;;;15.20;;
19291;SDS011;9779;51.756;7.450;2024-03-08T02:16:04;24.53;;;17.13;;
19291;SDS011;9779;51.756;7.450;2024-03-08T02:18:32;25.07;;;16.93;;
19291;SDS011;9779;51.756;7.450;2024-03-08T02:20:59;19.67;;;16.50;;
19291;SDS011;9779;51.756;7.450;2024-03-08T02:23:26;19.23;;;16.57;;
19291;SDS011;9779;51.756;7.450;2024-03-08T02:25:52;19.67;;;15.87;;
19291;SDS011;9779;51.756;7.450;2024-03-08T02:28:18;20.30;;;16.07;;
19291;SDS011;9779;51.756;7.450;2024-03-08T02:30:48;17.60;;;15.27;;
19291;SDS011;9779;51.756;7.450;2024-03-08T02:33:16;20.77;;;16.77;;
19291;SDS011;9779;51.756;7.450;2024-03-08T02:35:42;24.00;;;16.23;;
19291;SDS011;9779;51.756;7.450;2024-03-08T02:38:15;20.00;;;15.80;;
19291;SDS011;9779;51.756;7.450;2024-03-08T02:40:43;20.87;;;15.23;;
19291;SDS011;9779;51.756;7.450;2024-03-08T02:43:10;23.50;;;16.07;;
19291;SDS011;9779;51.756;7.450;2024-03-08T02:45:36;16.73;;;14.83;;
19291;SDS011;9779;51.756;7.450;2024-03-08T02:48:02;18.37;;;15.97;;
19291;SDS011;9779;51.756;7.450;2024-03-08T02:50:28;21.03;;;15.60;;
19291;SDS011;9779;51.756;7.450;2024-03-08T02:52:54;18.43;;;15.90;;
19291;SDS011;9779;51.756;7.450;2024-03-08T02:55:20;19.73;;;16.63;;
19291;SDS011;9779;51.756;7.450;2024-03-08T02:57:45;29.43;;;18.17;;
19291;SDS011;9779;51.756;7.450;2024-03-08T03:00:14;29.50;;;17.07;;
19291;SDS011;9779;51.756;7.450;2024-03-08T03:02:40;21.33;;;16.57;;
19291;SDS011;9779;51.756;7.450;2024-03-08T03:05:07;23.47;;;16.77;;
19291;SDS011;9779;51.756;7.450;2024-03-08T03:07:34;24.33;;;16.20;;
19291;SDS011;9779;51.756;7.450;2024-03-08T03:10:01;21.97;;;17.57;;
19291;SDS011;9779;51.756;7.450;2024-03-08T03:12:30;21.20;;;17.33;;
19291;SDS011;9779;51.756;7.450;2024-03-08T03:14:59;23.53;;;17.10;;
19291;SDS011;9779;51.756;7.450;2024-03-08T03:17:25;25.50;;;17.17;;
19291;SDS011;9779;51.756;7.450;2024-03-08T03:19:51;23.80;;;17.37;;
19291;SDS011;9779;51.756;7.450;2024-03-08T03:22:17;23.77;;;16.93;;
19291;SDS011;9779;51.756;7.450;2024-03-08T03:24:44;21.77;;;16.63;;
19291;SDS011;9779;51.756;7.450;2024-03-08T03:27:14;28.23;;;16.17;;
19291;SDS011;9779;51.756;7.450;2024-03-08T03:29:40;22.70;;;17.03;;
19291;SDS011;9779;51.756;7.450;2024-03-08T03:32:14;24.90;;;17.27;;
19291;SDS011;9779;51.756;7.450;2024-03-08T03:34:41;20.57;;;17.10;;
19291;SDS011;9779;51.756;7.450;2024-03-08T03:37:08;23.23;;;17.37;;
19291;SDS011;9779;51.756;7.450;2024-03-08T03:39:37;20.27;;;16.43;;
19291;SDS011;9779;51.756;7.450;2024-03-08T03:42:18;28.33;;;16.97;;
19291;SDS011;9779;51.756;7.450;2024-03-08T03:44:47;25.90;;;17.83;;
19291;SDS011;9779;51.756;7.450;2024-03-08T03:47:13;23.13;;;17.00;;
19291;SDS011;9779;51.756;7.450;2024-03-08T03:49:43;23.27;;;17.83;;
19291;SDS011;9779;51.756;7.450;2024-03-08T03:52:09;21.53;;;17.77;;
19291;SDS011;9779;51.756;7.450;2024-03-08T03:54:35;22.10;;;17.73;;
19291;SDS011;9779;51.756;7.450;2024-03-08T03:57:01;24.50;;;16.83;;
19291;SDS011;9779;51.756;7.450;2024-03-08T03:59:27;27.37;;;17.83;;
19291;SDS011;9779;51.756;7.450;2024-03-08T04:01:53;26.03;;;17.80;;
19291;SDS011;9779;51.756;7.450;2024-03-08T04:04:20;21.03;;;17.90;;
19291;SDS011;9779;51.756;7.450;2024-03-08T04:06:46;31.30;;;16.83;;
19291;SDS011;9779;51.756;7.450;2024-03-08T04:09:11;24.37;;;18.13;;
19291;SDS011;9779;51.756;7.450;2024-03-08T04:11:37;24.40;;;17.00;;
19291;SDS011;9779;51.756;7.450;2024-03-08T04:14:03;22.37;;;17.53;;
19291;SDS011;9779;51.756;7.450;2024-03-08T04:16:30;25.53;;;18.43;;
19291;SDS011;9779;51.756;7.450;2024-03-08T04:18:56;23.37;;;17.90;;
19291;SDS011;9779;51.756;7.450;2024-03-08T04:21:22;24.57;;;18.40;;
19291;SDS011;9779;51.756;7.450;2024-03-08T04:23:48;20.97;;;16.83;;
19291;SDS011;9779;51.756;7.450;2024-03-08T04:26:14;25.77;;;18.93;;
19291;SDS011;9779;51.756;7.450;2024-03-08T04:28:39;24.10;;;18.17;;
19291;SDS011;9779;51.756;7.450;2024-03-08T04:31:05;21.97;;;18.90;;
19291;SDS011;9779;51.756;7.450;2024-03-08T04:33:31;26.67;;;18.73;;
19291;SDS011;9779;51.756;7.450;2024-03-08T04:35:57;24.13;;;17.20;;
19291;SDS011;9779;51.756;7.450;2024-03-08T04:38:23;24.70;;;18.70;;
19291;SDS011;9779;51.756;7.450;2024-03-08T04:40:49;23.73;;;18.07;;
19291;SDS011;9779;51.756;7.450;2024-03-08T04:43:15;31.57;;;19.60;;
19291;SDS011;9779;51.756;7.450;2024-03-08T04:45:43;26.37;;;18.87;;
19291;SDS011;9779;51.756;7.450;2024-03-08T04:48:09;24.03;;;18.23;;
19291;SDS011;9779;51.756;7.450;2024-03-08T04:50:34;23.30;;;18.97;;
19291;SDS011;9779;51.756;7.450;2024-03-08T04:53:00;25.33;;;19.10;;
19291;SDS011;9779;51.756;7.450;2024-03-08T04:55:26;24.50;;;19.57;;
19291;SDS011;9779;51.756;7.450;2024-03-08T04:57:52;25.23;;;19.00;;
19291;SDS011;9779;51.756;7.450;2024-03-08T05:00:19;28.43;;;19.47;;
19291;SDS011;9779;51.756;7.450;2024-03-08T05:02:45;24.33;;;18.07;;
19291;SDS011;9779;51.756;7.450;2024-03-08T05:05:11;26.77;;;19.10;;
19291;SDS011;9779;51.756;7.450;2024-03-08T05:07:38;26.07;;;19.40;;
19291;SDS011;9779;51.756;7.450;2024-03-08T05:10:05;32.67;;;19.53;;
19291;SDS011;9779;51.756;7.450;2024-03-08T05:12:31;30.13;;;19.50;;
19291;SDS011;9779;51.756;7.450;2024-03-08T05:14:57;27.10;;;18.87;;
19291;SDS011;9779;51.756;7.450;2024-03-08T05:17:23;33.10;;;19.60;;
19291;SDS011;9779;51.756;7.450;2024-03-08T05:19:49;28.37;;;20.13;;
19291;SDS011;9779;51.756;7.450;2024-03-08T05:22:15;28.53;;;19.10;;
19291;SDS011;9779;51.756;7.450;2024-03-08T05:24:41;26.57;;;20.27;;
19291;SDS011;9779;51.756;7.450;2024-03-08T05:27:07;32.13;;;20.40;;
19291;SDS011;9779;51.756;7.450;2024-03-08T05:29:33;29.20;;;19.87;;
19291;SDS011;9779;51.756;7.450;2024-03-08T05:31:58;28.23;;;18.73;;
19291;SDS011;9779;51.756;7.450;2024-03-08T05:34:24;26.67;;;20.03;;
19291;SDS011;9779;51.756;7.450;2024-03-08T05:36:51;26.77;;;20.27;;
19291;SDS011;9779;51.756;7.450;2024-03-08T05:39:17;29.20;;;20.10;;
19291;SDS011;9779;51.756;7.450;2024-03-08T05:41:43;31.83;;;19.57;;
19291;SDS011;9779;51.756;7.450;2024-03-08T05:44:10;29.87;;;20.63;;
19291;SDS011;9779;51.756;7.450;2024-03-08T05:46:37;26.40;;;19.83;;
19291;SDS011;9779;51.756;7.450;2024-03-08T05:49:04;34.00;;;20.47;;
19291;SDS011;9779;51.756;7.450;2024-03-08T05:51:34;24.73;;;19.23;;
19291;SDS011;9779;51.756;7.450;2024-03-08T05:54:03;32.10;;;20.37;;
19291;SDS011;9779;51.756;7.450;2024-03-08T05:56:33;35.30;;;20.83;;
19291;SDS011;9779;51.756;7.450;2024-03-08T05:58:59;27.60;;;20.60;;
19291;SDS011;9779;51.756;7.450;2024-03-08T06:01:25;29.73;;;20.30;;
19291;SDS011;9779;51.756;7.450;2024-03-08T06:03:52;29.83;;;19.73;;
19291;SDS011;9779;51.756;7.450;2024-03-08T06:06:20;26.57;;;20.13;;
19291;SDS011;9779;51.756;7.450;2024-03-08T06:08:46;29.77;;;20.50;;
19291;SDS011;9779;51.756;7.450;2024-03-08T06:11:14;35.27;;;20.33;;
19291;SDS011;9779;51.756;7.450;2024-03-08T06:13:40;30.33;;;20.50;;
19291;SDS011;9779;51.756;7.450;2024-03-08T06:16:05;25.40;;;19.43;;
19291;SDS011;9779;51.756;7.450;2024-03-08T06:18:33;25.87;;;20.00;;
19291;SDS011;9779;51.756;7.450;2024-03-08T06:21:05;32.10;;;19.70;;
19291;SDS011;9779;51.756;7.450;2024-03-08T06:23:34;28.97;;;21.23;;
19291;SDS011;9779;51.756;7.450;2024-03-08T06:26:03;30.43;;;20.90;;
19291;SDS011;9779;51.756;7.450;2024-03-08T06:28:29;31.93;;;21.23;;
19291;SDS011;9779;51.756;7.450;2024-03-08T06:30:57;28.63;;;20.83;;
19291;SDS011;9779;51.756;7.450;2024-03-08T06:33:23;27.87;;;20.87;;
19291;SDS011;9779;51.756;7.450;2024-03-08T06:35:51;25.03;;;19.60;;
19291;SDS011;9779;51.756;7.450;2024-03-08T06:38:17;34.50;;;21.90;;
19291;SDS011;9779;51.756;7.450;2024-03-08T06:40:44;28.27;;;20.87;;
19291;SDS011;9779;51.756;7.450;2024-03-08T06:43:12;32.63;;;21.10;;
19291;SDS011;9779;51.756;7.450;2024-03-08T06:45:41;27.17;;;20.57;;
19291;SDS011;9779;51.756;7.450;2024-03-08T06:48:07;28.93;;;20.57;;
19291;SDS011;9779;51.756;7.450;2024-03-08T06:50:34;36.70;;;22.27;;
19291;SDS011;9779;51.756;7.450;2024-03-08T06:53:01;31.17;;;20.53;;
19291;SDS011;9779;51.756;7.450;2024-03-08T06:55:28;30.30;;;21.00;;
19291;SDS011;9779;51.756;7.450;2024-03-08T06:57:53;29.47;;;21.53;;
19291;SDS011;9779;51.756;7.450;2024-03-08T07:00:19;29.47;;;21.37;;
19291;SDS011;9779;51.756;7.450;2024-03-08T07:02:46;29.07;;;21.00;;
19291;SDS011;9779;51.756;7.450;2024-03-08T07:05:13;30.27;;;21.73;;
19291;SDS011;9779;51.756;7.450;2024-03-08T07:07:39;33.37;;;22.80;;
19291;SDS011;9779;51.756;7.450;2024-03-08T07:10:06;35.43;;;21.80;;
19291;SDS011;9779;51.756;7.450;2024-03-08T07:12:36;31.00;;;21.10;;
19291;SDS011;9779;51.756;7.450;2024-03-08T07:15:02;35.80;;;22.50;;
19291;SDS011;9779;51.756;7.450;2024-03-08T07:17:30;32.40;;;21.37;;
19291;SDS011;9779;51.756;7.450;2024-03-08T07:19:56;32.20;;;22.33;;
19291;SDS011;9779;51.756;7.450;2024-03-08T07:22:24;29.20;;;21.40;;
19291;SDS011;9779;51.756;7.450;2024-03-08T07:24:50;29.77;;;21.40;;
19291;SDS011;9779;51.756;7.450;2024-03-08T07:27:41;29.87;;;21.23;;
19291;SDS011;9779;51.756;7.450;2024-03-08T07:30:07;35.37;;;22.33;;
19291;SDS011;9779;51.756;7.450;2024-03-08T07:32:35;14.47;;;12.13;;
19291;SDS011;9779;51.756;7.450;2024-03-08T07:35:01;34.10;;;23.67;;
19291;SDS011;9779;51.756;7.450;2024-03-08T07:37:27;32.77;;;21.10;;
19291;SDS011;9779;51.756;7.450;2024-03-08T07:39:52;36.90;;;22.43;;
19291;SDS011;9779;51.756;7.450;2024-03-08T07:42:18;32.60;;;21.43;;
19291;SDS011;9779;51.756;7.450;2024-03-08T07:44:43;33.70;;;20.97;;
19291;SDS011;9779;51.756;7.450;2024-03-08T07:47:11;30.23;;;21.23;;
19291;SDS011;9779;51.756;7.450;2024-03-08T07:49:37;31.37;;;21.77;;
19291;SDS011;9779;51.756;7.450;2024-03-08T07:52:03;32.53;;;21.30;;
19291;SDS011;9779;51.756;7.450;2024-03-08T07:54:29;29.13;;;20.77;;
19291;SDS011;9779;51.756;7.450;2024-03-08T07:56:55;29.73;;;21.23;;
19291;SDS011;9779;51.756;7.450;2024-03-08T07:59:21;34.30;;;21.37;;
19291;SDS011;9779;51.756;7.450;2024-03-08T08:01:47;31.53;;;21.27;;
19291;SDS011;9779;51.756;7.450;2024-03-08T08:04:13;32.30;;;22.67;;
19291;SDS011;9779;51.756;7.450;2024-03-08T08:06:39;36.23;;;21.83;;
19291;SDS011;9779;51.756;7.450;2024-03-08T08:09:08;31.93;;;21.60;;
19291;SDS011;9779;51.756;7.450;2024-03-08T08:11:40;31.90;;;21.03;;
19291;SDS011;9779;51.756;7.450;2024-03-08T08:14:08;30.87;;;21.20;;
19291;SDS011;9779;51.756;7.450;2024-03-08T08:16:34;29.67;;;20.97;;
19291;SDS011;9779;51.756;7.450;2024-03-08T08:19:02;35.83;;;21.13;;
19291;SDS011;9779;51.756;7.450;2024-03-08T08:21:32;41.13;;;21.67;;
19291;SDS011;9779;51.756;7.450;2024-03-08T08:24:02;30.70;;;21.87;;
19291;SDS011;9779;51.756;7.450;2024-03-08T08:26:28;31.37;;;20.97;;
19291;SDS011;9779;51.756;7.450;2024-03-08T08:28:54;29.10;;;21.27;;
19291;SDS011;9779;51.756;7.450;2024-03-08T08:31:19;29.30;;;20.50;;
19291;SDS011;9779;51.756;7.450;2024-03-08T08:33:45;29.03;;;21.80;;
19291;SDS011;9779;51.756;7.450;2024-03-08T08:36:13;29.00;;;20.70;;
19291;SDS011;9779;51.756;7.450;2024-03-08T08:38:38;29.23;;;21.37;;
19291;SDS011;9779;51.756;7.450;2024-03-08T08:41:04;34.87;;;21.87;;
19291;SDS011;9779;51.756;7.450;2024-03-08T08:43:31;29.53;;;21.43;;
19291;SDS011;9779;51.756;7.450;2024-03-08T08:45:58;35.33;;;21.33;;
19291;SDS011;9779;51.756;7.450;2024-03-08T08:48:24;31.00;;;21.77;;
19291;SDS011;9779;51.756;7.450;2024-03-08T08:50:49;33.30;;;20.27;;
19291;SDS011;9779;51.756;7.450;2024-03-08T08:53:17;29.77;;;20.90;;
19291;SDS011;9779;51.756;7.450;2024-03-08T08:55:45;26.27;;;19.37;;
19291;SDS011;9779;51.756;7.450;2024-03-08T08:58:11;31.20;;;20.87;;
19291;SDS011;9779;51.756;7.450;2024-03-08T09:00:37;34.40;;;20.93;;
19291;SDS011;9779;51.756;7.450;2024-03-08T09:03:02;28.10;;;20.73;;
19291;SDS011;9779;51.756;7.450;2024-03-08T09:05:28;24.50;;;20.13;;
19291;SDS011;9779;51.756;7.450;2024-03-08T09:07:54;33.63;;;21.13;;
19291;SDS011;9779;51.756;7.450;2024-03-08T09:10:20;27.83;;;21.93;;
19291;SDS011;9779;51.756;7.450;2024-03-08T09:12:46;28.23;;;20.40;;
19291;SDS011;9779;51.756;7.450;2024-03-08T09:15:12;31.37;;;19.77;;
19291;SDS011;9779;51.756;7.450;2024-03-08T09:17:39;34.07;;;20.73;;
19291;SDS011;9779;51.756;7.450;2024-03-08T09:20:06;30.97;;;21.43;;
19291;SDS011;9779;51.756;7.450;2024-03-08T09:22:32;34.90;;;21.97;;
19291;SDS011;9779;51.756;7.450;2024-03-08T09:24:58;29.07;;;21.60;;
19291;SDS011;9779;51.756;7.450;2024-03-08T09:27:23;26.60;;;20.30;;
19291;SDS011;9779;51.756;7.450;2024-03-08T09:29:49;29.83;;;20.77;;
19291;SDS011;9779;51.756;7.450;2024-03-08T09:32:15;29.10;;;20.80;;
19291;SDS011;9779;51.756;7.450;2024-03-08T09:34:41;27.90;;;20.90;;
19291;SDS011;9779;51.756;7.450;2024-03-08T09:37:07;29.07;;;21.60;;
19291;SDS011;9779;51.756;7.450;2024-03-08T09:39:34;28.03;;;21.73;;
19291;SDS011;9779;51.756;7.450;2024-03-08T09:42:00;26.67;;;20.73;;
19291;SDS011;9779;51.756;7.450;2024-03-08T09:44:28;30.00;;;21.50;;
19291;SDS011;9779;51.756;7.450;2024-03-08T09:46:54;34.77;;;21.17;;
19291;SDS011;9779;51.756;7.450;2024-03-08T09:49:20;29.70;;;20.80;;
19291;SDS011;9779;51.756;7.450;2024-03-08T09:51:46;27.37;;;20.20;;
19291;SDS011;9779;51.756;7.450;2024-03-08T09:54:12;30.00;;;21.17;;
19291;SDS011;9779;51.756;7.450;2024-03-08T09:56:41;30.07;;;21.90;;
19291;SDS011;9779;51.756;7.450;2024-03-08T09:59:09;29.90;;;20.60;;
19291;SDS011;9779;51.756;7.450;2024-03-08T10:01:38;24.97;;;19.70;;
19291;SDS011;9779;51.756;7.450;2024-03-08T10:04:04;25.87;;;20.03;;
19291;SDS011;9779;51.756;7.450;2024-03-08T10:06:30;29.20;;;20.73;;
19291;SDS011;9779;51.756;7.450;2024-03-08T10:08:56;29.07;;;20.97;;
19291;SDS011;9779;51.756;7.450;2024-03-08T10:11:22;24.97;;;20.40;;
19291;SDS011;9779;51.756;7.450;2024-03-08T10:13:51;24.17;;;19.30;;
19291;SDS011;9779;51.756;7.450;2024-03-08T10:16:17;29.97;;;20.23;;
19291;SDS011;9779;51.756;7.450;2024-03-08T10:18:46;27.00;;;20.20;;
19291;SDS011;9779;51.756;7.450;2024-03-08T10:21:12;28.03;;;19.43;;
19291;SDS011;9779;51.756;7.450;2024-03-08T10:23:38;26.97;;;20.17;;
19291;SDS011;9779;51.756;7.450;2024-03-08T10:26:13;23.30;;;18.70;;
19291;SDS011;9779;51.756;7.450;2024-03-08T10:28:41;24.33;;;18.40;;
19291;SDS011;9779;51.756;7.450;2024-03-08T10:31:10;30.73;;;19.43;;
19291;SDS011;9779;51.756;7.450;2024-03-08T10:33:36;25.80;;;19.50;;
19291;SDS011;9779;51.756;7.450;2024-03-08T10:36:03;30.17;;;20.17;;
19291;SDS011;9779;51.756;7.450;2024-03-08T10:38:31;27.67;;;18.50;;
19291;SDS011;9779;51.756;7.450;2024-03-08T10:41:00;22.87;;;18.10;;
19291;SDS011;9779;51.756;7.450;2024-03-08T10:43:28;20.73;;;17.80;;
19291;SDS011;9779;51.756;7.450;2024-03-08T10:48:55;21.57;;;17.60;;
19291;SDS011;9779;51.756;7.450;2024-03-08T10:51:27;21.40;;;17.63;;
19291;SDS011;9779;51.756;7.450;2024-03-08T10:53:55;27.23;;;18.40;;
19291;SDS011;9779;51.756;7.450;2024-03-08T10:56:22;25.67;;;17.57;;
19291;SDS011;9779;51.756;7.450;2024-03-08T10:58:48;23.20;;;17.87;;
19291;SDS011;9779;51.756;7.450;2024-03-08T11:01:14;20.53;;;17.50;;
19291;SDS011;9779;51.756;7.450;2024-03-08T11:06:06;21.43;;;16.30;;
19291;SDS011;9779;51.756;7.450;2024-03-08T11:08:35;20.30;;;17.10;;
19291;SDS011;9779;51.756;7.450;2024-03-08T11:11:01;19.20;;;15.67;;
19291;SDS011;9779;51.756;7.450;2024-03-08T11:16:11;24.00;;;17.50;;
19291;SDS011;9779;51.756;7.450;2024-03-08T11:19:00;14.60;;;12.30;;
19291;SDS011;9779;51.756;7.450;2024-03-08T11:21:31;18.83;;;16.20;;
19291;SDS011;9779;51.756;7.450;2024-03-08T11:24:12;18.47;;;15.80;;
19291;SDS011;9779;51.756;7.450;2024-03-08T11:26:39;19.60;;;16.93;;
19291;SDS011;9779;51.756;7.450;2024-03-08T11:32:14;22.87;;;16.63;;
19291;SDS011;9779;51.756;7.450;2024-03-08T11:34:41;23.63;;;16.70;;
19291;SDS011;9779;51.756;7.450;2024-03-08T11:37:15;18.37;;;16.17;;
19291;SDS011;9779;51.756;7.450;2024-03-08T11:39:52;19.73;;;16.93;;
19291;SDS011;9779;51.756;7.450;2024-03-08T11:42:24;19.97;;;16.63;;
19291;SDS011;9779;51.756;7.450;2024-03-08T11:44:53;17.83;;;16.10;;
19291;SDS011;9779;51.756;7.450;2024-03-08T11:47:19;17.20;;;15.37;;
19291;SDS011;9779;51.756;7.450;2024-03-08T11:49:45;25.60;;;16.63;;
19291;SDS011;9779;51.756;7.450;2024-03-08T11:52:13;19.23;;;16.90;;
19291;SDS011;9779;51.756;7.450;2024-03-08T11:54:43;22.47;;;16.67;;
19291;SDS011;9779;51.756;7.450;2024-03-08T11:57:19;18.07;;;16.30;;
19291;SDS011;9779;51.756;7.450;2024-03-08T11:59:53;22.47;;;16.97;;
19291;SDS011;9779;51.756;7.450;2024-03-08T12:02:21;17.53;;;15.73;;
19291;SDS011;9779;51.756;7.450;2024-03-08T12:04:48;21.10;;;17.40;;
19291;SDS011;9779;51.756;7.450;2024-03-08T12:07:22;22.63;;;16.33;;
19291;SDS011;9779;51.756;7.450;2024-03-08T12:12:42;17.93;;;16.03;;
19291;SDS011;9779;51.756;7.450;2024-03-08T12:15:09;18.20;;;15.97;;
19291;SDS011;9779;51.756;7.450;2024-03-08T12:17:36;26.23;;;16.70;;
19291;SDS011;9779;51.756;7.450;2024-03-08T12:22:58;17.17;;;15.30;;
19291;SDS011;9779;51.756;7.450;2024-03-08T12:25:31;18.20;;;16.07;;
19291;SDS011;9779;51.756;7.450;2024-03-08T12:28:12;18.90;;;15.60;;
19291;SDS011;9779;51.756;7.450;2024-03-08T12:30:50;19.13;;;15.90;;
19291;SDS011;9779;51.756;7.450;2024-03-08T12:33:17;19.43;;;16.10;;
19291;SDS011;9779;51.756;7.450;2024-03-08T12:36:20;17.77;;;15.97;;
19291;SDS011;9779;51.756;7.450;2024-03-08T12:38:46;19.00;;;15.53;;
19291;SDS011;9779;51.756;7.450;2024-03-08T12:41:16;19.43;;;15.27;;
19291;SDS011;9779;51.756;7.450;2024-03-08T12:43:45;19.40;;;16.33;;
19291;SDS011;9779;51.756;7.450;2024-03-08T12:46:15;24.27;;;14.87;;
19291;SDS011;9779;51.756;7.450;2024-03-08T12:48:41;16.93;;;14.97;;
19291;SDS011;9779;51.756;7.450;2024-03-08T12:51:12;20.77;;;16.50;;
19291;SDS011;9779;51.756;7.450;2024-03-08T12:53:38;18.53;;;15.83;;
19291;SDS011;9779;51.756;7.450;2024-03-08T12:56:05;15.70;;;14.10;;
19291;SDS011;9779;51.756;7.450;2024-03-08T12:58:34;16.57;;;14.30;;
19291;SDS011;9779;51.756;7.450;2024-03-08T13:01:01;19.27;;;16.03;;
19291;SDS011;9779;51.756;7.450;2024-03-08T13:03:30;15.97;;;14.47;;
19291;SDS011;9779;51.756;7.450;2024-03-08T13:05:56;16.17;;;14.57;;
19291;SDS011;9779;51.756;7.450;2024-03-08T13:08:22;17.87;;;15.33;;
19291;SDS011;9779;51.756;7.450;2024-03-08T13:10:50;19.43;;;15.57;;
19291;SDS011;9779;51.756;7.450;2024-03-08T13:13:16;21.37;;;15.97;;
19291;SDS011;9779;51.756;7.450;2024-03-08T13:15:42;16.20;;;14.60;;
19291;SDS011;9779;51.756;7.450;2024-03-08T13:18:08;17.20;;;15.47;;
19291;SDS011;9779;51.756;7.450;2024-03-08T13:20:35;22.23;;;15.83;;
19291;SDS011;9779;51.756;7.450;2024-03-08T13:23:03;16.17;;;14.47;;
19291;SDS011;9779;51.756;7.450;2024-03-08T13:25:30;16.33;;;14.73;;
19291;SDS011;9779;51.756;7.450;2024-03-08T13:27:56;15.83;;;14.23;;
19291;SDS011;9779;51.756;7.450;2024-03-08T13:30:24;15.67;;;14.27;;
19291;SDS011;9779;51.756;7.450;2024-03-08T13:32:52;17.07;;;15.37;;
19291;SDS011;9779;51.756;7.450;2024-03-08T13:35:21;16.57;;;14.83;;
19291;SDS011;9779;51.756;7.450;2024-03-08T13:37:52;16.60;;;14.93;;
19291;SDS011;9779;51.756;7.450;2024-03-08T13:40:18;17.80;;;15.27;;
19291;SDS011;9779;51.756;7.450;2024-03-08T13:42:45;18.10;;;14.67;;
19291;SDS011;9779;51.756;7.450;2024-03-08T13:45:25;15.70;;;14.30;;
19291;SDS011;9779;51.756;7.450;2024-03-08T13:47:53;17.33;;;14.83;;
19291;SDS011;9779;51.756;7.450;2024-03-08T13:50:19;16.23;;;14.70;;
19291;SDS011;9779;51.756;7.450;2024-03-08T13:52:48;16.43;;;14.63;;
19291;SDS011;9779;51.756;7.450;2024-03-08T13:55:19;39.60;;;18.63;;
19291;SDS011;9779;51.756;7.450;2024-03-08T13:57:45;17.20;;;15.47;;
19291;SDS011;9779;51.756;7.450;2024-03-08T14:00:13;25.50;;;16.50;;
19291;SDS011;9779;51.756;7.450;2024-03-08T14:02:40;25.83;;;17.03;;
19291;SDS011;9779;51.756;7.450;2024-03-08T14:05:06;34.57;;;17.37;;
19291;SDS011;9779;51.756;7.450;2024-03-08T14:07:34;19.87;;;16.47;;
19291;SDS011;9779;51.756;7.450;2024-03-08T14:10:00;17.77;;;15.13;;
19291;SDS011;9779;51.756;7.450;2024-03-08T14:12:26;25.97;;;16.00;;
19291;SDS011;9779;51.756;7.450;2024-03-08T14:14:54;18.13;;;16.30;;
19291;SDS011;9779;51.756;7.450;2024-03-08T14:17:22;28.03;;;15.70;;
19291;SDS011;9779;51.756;7.450;2024-03-08T14:19:49;19.00;;;15.53;;
19291;SDS011;9779;51.756;7.450;2024-03-08T14:22:15;16.50;;;14.97;;
19291;SDS011;9779;51.756;7.450;2024-03-08T14:24:41;22.03;;;15.37;;
19291;SDS011;9779;51.756;7.450;2024-03-08T14:27:07;19.47;;;15.60;;
19291;SDS011;9779;51.756;7.450;2024-03-08T14:29:34;18.80;;;15.40;;
19291;SDS011;9779;51.756;7.450;2024-03-08T14:32:00;17.40;;;15.60;;
19291;SDS011;9779;51.756;7.450;2024-03-08T14:34:28;23.50;;;16.47;;
19291;SDS011;9779;51.756;7.450;2024-03-08T14:36:55;18.60;;;16.17;;
19291;SDS011;9779;51.756;7.450;2024-03-08T14:39:21;17.47;;;15.63;;
19291;SDS011;9779;51.756;7.450;2024-03-08T14:41:51;18.77;;;15.60;;
19291;SDS011;9779;51.756;7.450;2024-03-08T14:44:19;21.50;;;16.17;;
19291;SDS011;9779;51.756;7.450;2024-03-08T14:46:44;20.43;;;17.37;;
19291;SDS011;9779;51.756;7.450;2024-03-08T14:49:11;18.97;;;16.50;;
19291;SDS011;9779;51.756;7.450;2024-03-08T14:51:37;17.67;;;15.97;;